KUIL/UIL METAR and TAF weather

Enter ICAO airport designator
Station Type Date Time Source
KUIL METAR 2021/05/14 22:53 UTC NOAA

KUIL 142253Z AUTO 32007KT 10SM CLR 14/09 A3016 RMK AO2 SLP214 T01440094 $


Station Type Date Time Source
KUIL Decoded METAR 2021/05/14 22:53 UTC NOAA

QUILLAYUTE STATE AIRPORT, WA, United States (KUIL) 47-56N 124-34W 54M
May 14, 2021 - 06:53 PM EDT / 2021.05.14 2253 UTC
Wind: from the NW (320 degrees) at 8 MPH (7 KT):0
Visibility: 10 mile(s):0
Sky conditions: clear
Temperature: 57.9 F (14.4 C)
Dew Point: 48.9 F (9.4 C)
Relative Humidity: 71%
Pressure (altimeter): 30.16 in. Hg (1021 hPa)
ob: KUIL 142253Z AUTO 32007KT 10SM CLR 14/09 A3016 RMK AO2 SLP214 T01440094
cycle: 23

Station Type Date Time Source
KUIL TAF UTC NOAA

Error!

Example: see airport list